createdAt,value
2023-03-22T00:00:39.751Z,2.30
2023-03-22T00:03:13.449Z,2.00
2023-03-22T00:06:23.121Z,1.93
2023-03-22T00:08:56.678Z,3.17
2023-03-22T00:11:27.503Z,2.30
2023-03-22T00:13:58.869Z,3.27
2023-03-22T00:16:29.055Z,2.90
2023-03-22T00:18:58.620Z,3.37
2023-03-22T00:21:27.257Z,3.60
2023-03-22T00:26:40.481Z,3.40
2023-03-22T00:29:11.599Z,3.37
2023-03-22T00:31:41.626Z,2.60
2023-03-22T00:34:17.424Z,2.43
2023-03-22T00:36:47.416Z,2.57
2023-03-22T00:39:16.805Z,2.83
2023-03-22T00:41:45.096Z,2.67
2023-03-22T00:44:13.772Z,2.27
2023-03-22T00:46:45.419Z,2.00
2023-03-22T00:49:16.230Z,2.60
2023-03-22T00:51:46.536Z,2.27
2023-03-22T00:54:18.592Z,2.43
2023-03-22T00:56:52.231Z,2.17
2023-03-22T00:59:23.599Z,2.37
2023-03-22T01:01:54.559Z,2.40
2023-03-22T01:04:25.985Z,2.13
2023-03-22T01:07:01.573Z,2.60
2023-03-22T01:09:31.090Z,2.20
2023-03-22T01:12:00.441Z,2.30
2023-03-22T01:14:31.918Z,2.50
2023-03-22T01:17:01.003Z,2.67
2023-03-22T01:19:30.993Z,2.60
2023-03-22T01:21:59.098Z,2.60
2023-03-22T01:24:30.097Z,2.00
2023-03-22T01:26:59.673Z,2.10
2023-03-22T01:29:28.828Z,2.33
2023-03-22T01:32:01.477Z,2.03
2023-03-22T01:35:15.744Z,1.93
2023-03-22T01:38:08.853Z,2.13
2023-03-22T01:41:04.919Z,2.03
2023-03-22T01:44:02.097Z,2.50
2023-03-22T01:46:33.345Z,2.40
2023-03-22T01:49:14.586Z,2.60
2023-03-22T01:52:08.500Z,2.27
2023-03-22T01:54:42.911Z,2.47
2023-03-22T01:57:21.839Z,2.57
2023-03-22T01:59:51.459Z,2.80
2023-03-22T02:02:21.650Z,3.10
2023-03-22T02:04:58.870Z,3.47
2023-03-22T02:07:52.407Z,2.83
2023-03-22T02:10:23.629Z,3.10
2023-03-22T02:13:11.861Z,3.90
2023-03-22T02:15:47.167Z,4.13
2023-03-22T02:18:32.182Z,4.17
2023-03-22T02:21:31.086Z,3.90
2023-03-22T02:24:30.736Z,5.10
2023-03-22T02:27:39.195Z,4.53
2023-03-22T02:30:28.989Z,4.20
2023-03-22T02:33:35.963Z,5.27
2023-03-22T02:36:42.598Z,4.70
2023-03-22T02:39:57.959Z,5.00
2023-03-22T02:42:57.316Z,4.93
2023-03-22T02:45:33.366Z,5.00
2023-03-22T02:48:49.054Z,4.33
2023-03-22T02:51:40.008Z,4.47
2023-03-22T02:54:34.185Z,5.10
2023-03-22T02:57:09.983Z,4.87
2023-03-22T02:59:45.927Z,4.97
2023-03-22T03:02:20.754Z,4.93
2023-03-22T03:05:10.741Z,4.67
2023-03-22T03:07:41.761Z,5.17
2023-03-22T03:10:20.161Z,4.93
2023-03-22T03:12:49.977Z,5.00
2023-03-22T03:15:42.584Z,4.87
2023-03-22T03:18:27.515Z,5.30
2023-03-22T03:21:07.023Z,5.70
2023-03-22T03:23:47.274Z,5.93
2023-03-22T03:26:32.276Z,6.20
2023-03-22T03:29:06.916Z,7.20
2023-03-22T03:31:45.684Z,6.77
2023-03-22T03:34:23.720Z,6.93
2023-03-22T03:37:20.366Z,6.10
2023-03-22T03:39:56.919Z,6.50
2023-03-22T03:42:55.724Z,6.67
2023-03-22T03:45:27.151Z,6.27
2023-03-22T03:48:00.140Z,6.60
2023-03-22T03:50:36.651Z,5.97
2023-03-22T03:53:14.536Z,7.23
2023-03-22T03:55:44.794Z,6.47
2023-03-22T03:58:35.351Z,6.60
2023-03-22T04:01:05.325Z,6.57
2023-03-22T04:03:36.884Z,6.47
2023-03-22T04:06:46.739Z,6.47
2023-03-22T04:09:16.436Z,6.20
2023-03-22T04:11:47.165Z,7.20
2023-03-22T04:14:19.267Z,6.30
2023-03-22T04:16:50.853Z,6.20
2023-03-22T04:19:21.831Z,6.17
2023-03-22T04:21:53.222Z,6.17
2023-03-22T04:24:24.797Z,6.00
2023-03-22T04:26:59.585Z,5.57
2023-03-22T04:29:36.312Z,5.97
2023-03-22T04:32:08.891Z,5.20
2023-03-22T04:34:42.231Z,5.47
2023-03-22T04:37:31.928Z,5.20
2023-03-22T04:40:05.909Z,5.43
2023-03-22T04:42:34.745Z,5.47
2023-03-22T04:45:12.450Z,5.60
2023-03-22T04:47:40.855Z,5.47
2023-03-22T04:50:15.526Z,5.03
2023-03-22T04:52:43.928Z,4.20
2023-03-22T04:55:23.360Z,3.73
2023-03-22T04:57:55.030Z,4.33
2023-03-22T05:00:33.229Z,3.80
2023-03-22T05:03:02.835Z,3.97
2023-03-22T05:05:31.338Z,3.77
2023-03-22T05:08:01.280Z,3.33
2023-03-22T05:10:49.676Z,3.13
2023-03-22T05:13:25.040Z,3.50
2023-03-22T05:15:55.552Z,3.30
2023-03-22T05:18:26.307Z,2.93
2023-03-22T05:21:16.837Z,3.00
2023-03-22T05:23:46.407Z,2.77
2023-03-22T05:26:20.623Z,2.83
2023-03-22T05:28:50.037Z,2.43
2023-03-22T05:31:33.267Z,3.03
2023-03-22T05:34:03.375Z,3.20
2023-03-22T05:36:32.444Z,2.80
2023-03-22T05:39:03.092Z,2.53
2023-03-22T05:41:37.119Z,3.00
2023-03-22T05:44:06.270Z,2.50
2023-03-22T05:46:39.416Z,2.67
2023-03-22T05:49:07.495Z,2.40
2023-03-22T05:51:42.427Z,3.10
2023-03-22T05:54:13.219Z,2.20
2023-03-22T05:56:41.243Z,3.20
2023-03-22T05:59:09.234Z,2.43
2023-03-22T06:01:39.470Z,2.20
2023-03-22T06:04:07.487Z,2.70
2023-03-22T06:06:35.539Z,2.63
2023-03-22T06:09:16.384Z,2.20
2023-03-22T06:11:45.260Z,2.57
2023-03-22T06:14:13.457Z,2.50
2023-03-22T06:16:42.837Z,3.17
2023-03-22T06:19:11.106Z,2.80
2023-03-22T06:21:41.893Z,2.07
2023-03-22T06:24:10.207Z,2.87
2023-03-22T06:26:38.222Z,2.60
2023-03-22T06:29:06.576Z,2.23
2023-03-22T06:31:34.627Z,2.20
2023-03-22T06:34:04.177Z,2.33
2023-03-22T06:36:32.549Z,2.20
2023-03-22T06:39:02.816Z,2.70
2023-03-22T06:41:31.097Z,2.07
2023-03-22T06:43:59.264Z,2.67
2023-03-22T06:46:27.522Z,2.87
2023-03-22T06:48:55.727Z,2.50
2023-03-22T06:51:25.297Z,2.40
2023-03-22T06:53:53.375Z,2.63
2023-03-22T06:56:21.443Z,2.33
2023-03-22T06:58:51.728Z,2.10
2023-03-22T07:01:19.809Z,2.10
2023-03-22T07:03:48.207Z,2.47
2023-03-22T07:06:16.294Z,2.23
2023-03-22T07:08:45.975Z,2.33
2023-03-22T07:11:14.017Z,2.00
2023-03-22T07:13:41.955Z,2.17
2023-03-22T07:16:10.966Z,1.80
2023-03-22T07:18:39.285Z,1.97
2023-03-22T07:21:08.138Z,2.20
2023-03-22T07:23:38.610Z,2.50
2023-03-22T07:26:08.647Z,2.33
2023-03-22T07:28:36.916Z,2.40
2023-03-22T07:31:07.251Z,2.13
2023-03-22T07:33:35.348Z,2.37
2023-03-22T07:36:03.373Z,2.63
2023-03-22T07:38:31.466Z,2.50
2023-03-22T07:40:59.482Z,2.43
2023-03-22T07:43:28.834Z,2.60
2023-03-22T07:45:56.904Z,3.07
2023-03-22T07:48:25.643Z,2.70
2023-03-22T07:50:57.381Z,2.93
2023-03-22T07:53:28.148Z,2.40
2023-03-22T07:55:56.073Z,2.73
2023-03-22T07:58:26.281Z,3.10
2023-03-22T08:00:55.697Z,3.63
2023-03-22T08:03:23.858Z,2.80
2023-03-22T08:05:51.988Z,2.73
2023-03-22T08:08:21.551Z,3.40
2023-03-22T08:10:52.966Z,2.73
2023-03-22T08:13:21.156Z,2.80
2023-03-22T08:15:53.344Z,2.13
2023-03-22T08:18:22.736Z,3.43
2023-03-22T08:20:54.567Z,3.20
2023-03-22T08:23:31.646Z,2.33
2023-03-22T08:26:07.136Z,3.00
2023-03-22T08:28:35.528Z,2.43
2023-03-22T08:31:10.494Z,2.33
2023-03-22T08:33:40.185Z,2.77
2023-03-22T08:36:09.796Z,2.63
2023-03-22T08:38:38.137Z,2.13
2023-03-22T08:41:06.724Z,2.43
2023-03-22T08:43:34.813Z,2.17
2023-03-22T08:46:03.108Z,2.10
2023-03-22T08:48:31.899Z,3.20
2023-03-22T08:51:02.207Z,2.63
2023-03-22T08:53:30.679Z,2.57
2023-03-22T08:56:02.021Z,2.17
2023-03-22T08:58:30.200Z,2.30
2023-03-22T09:00:58.324Z,2.57
2023-03-22T09:03:26.546Z,2.50
2023-03-22T09:05:54.909Z,2.70
2023-03-22T09:08:24.253Z,2.23
2023-03-22T09:10:52.464Z,3.20
2023-03-22T09:13:21.076Z,3.37
2023-03-22T09:15:49.526Z,3.47
2023-03-22T09:18:17.621Z,2.30
2023-03-22T09:20:46.273Z,2.70
2023-03-22T09:23:15.489Z,2.67
2023-03-22T09:25:46.514Z,2.87
2023-03-22T09:28:14.687Z,2.63
2023-03-22T09:30:42.934Z,2.67
2023-03-22T09:33:11.568Z,2.70
2023-03-22T09:35:42.969Z,2.40
2023-03-22T09:38:12.241Z,2.90
2023-03-22T09:40:50.212Z,2.70
2023-03-22T09:43:19.834Z,3.40
2023-03-22T09:45:51.519Z,3.20
2023-03-22T09:48:22.795Z,2.70
2023-03-22T09:50:55.678Z,2.70
2023-03-22T09:53:27.653Z,3.00
2023-03-22T09:56:02.035Z,3.33
2023-03-22T09:58:34.860Z,3.97
2023-03-22T10:01:06.480Z,3.20
2023-03-22T10:04:11.583Z,3.20
2023-03-22T10:06:41.171Z,2.87
2023-03-22T10:09:15.599Z,2.93
2023-03-22T10:11:50.238Z,2.43
2023-03-22T10:14:34.270Z,2.50
2023-03-22T10:17:06.760Z,2.70
2023-03-22T10:19:41.084Z,2.03
2023-03-22T10:22:13.782Z,2.60
2023-03-22T10:24:46.549Z,3.37
2023-03-22T10:27:18.837Z,2.60
2023-03-22T10:29:50.795Z,3.13
2023-03-22T10:32:21.254Z,2.87
2023-03-22T10:34:49.446Z,2.70
2023-03-22T10:37:21.476Z,2.80
2023-03-22T10:39:53.692Z,2.40
2023-03-22T10:42:27.463Z,2.80
2023-03-22T10:44:59.953Z,2.63
2023-03-22T10:47:34.379Z,3.00
2023-03-22T10:50:06.009Z,2.93
2023-03-22T10:52:45.110Z,2.83
2023-03-22T10:55:14.680Z,3.00
2023-03-22T10:57:52.776Z,3.10
2023-03-22T11:00:24.279Z,3.00
2023-03-22T11:02:54.886Z,2.97
2023-03-22T11:05:25.839Z,3.57
2023-03-22T11:07:54.917Z,2.93
2023-03-22T11:10:29.936Z,3.37
2023-03-22T11:13:18.404Z,2.60
2023-03-22T11:15:55.792Z,2.97
2023-03-22T11:18:28.129Z,3.90
2023-03-22T11:21:01.866Z,2.40
2023-03-22T11:23:38.758Z,2.63
2023-03-22T11:26:10.314Z,2.90
2023-03-22T11:28:46.852Z,2.37
2023-03-22T11:31:17.505Z,2.30
2023-03-22T11:33:57.322Z,2.33
2023-03-22T11:36:25.807Z,2.57
2023-03-22T11:38:59.370Z,2.30
2023-03-22T11:41:29.701Z,2.33
2023-03-22T11:44:03.065Z,1.97
2023-03-22T11:46:32.436Z,2.30
2023-03-22T11:49:04.478Z,2.37
2023-03-22T11:51:35.492Z,2.20
2023-03-22T11:54:10.034Z,2.43
2023-03-22T11:56:43.459Z,2.57
2023-03-22T11:59:16.667Z,2.70
2023-03-22T12:01:49.487Z,2.67
2023-03-22T12:04:22.513Z,1.93
2023-03-22T12:06:53.709Z,2.87
2023-03-22T12:09:29.389Z,2.10
2023-03-22T12:12:00.431Z,2.80
2023-03-22T12:14:33.673Z,2.73
2023-03-22T12:17:07.354Z,2.63
2023-03-22T12:19:46.292Z,2.33
2023-03-22T12:22:17.081Z,2.90
2023-03-22T12:25:10.422Z,2.47
2023-03-22T12:27:41.264Z,2.27
2023-03-22T12:30:15.889Z,2.43
2023-03-22T12:32:48.229Z,2.47
2023-03-22T12:35:19.742Z,2.50
2023-03-22T12:37:51.969Z,2.23
2023-03-22T12:40:26.944Z,2.60
2023-03-22T12:43:02.119Z,2.80
2023-03-22T12:45:37.172Z,2.60
2023-03-22T12:48:11.309Z,2.37
2023-03-22T12:50:44.716Z,2.20
2023-03-22T12:53:16.082Z,2.47
2023-03-22T12:55:45.988Z,2.00
2023-03-22T12:58:16.767Z,2.47
2023-03-22T13:00:49.761Z,2.30
2023-03-22T13:03:26.800Z,2.00
2023-03-22T13:06:03.412Z,2.10
2023-03-22T13:09:04.875Z,2.50
2023-03-22T13:11:32.905Z,2.67
2023-03-22T13:14:01.194Z,2.20
2023-03-22T13:16:54.393Z,2.37
2023-03-22T13:19:33.028Z,2.27
2023-03-22T13:22:22.103Z,2.57
2023-03-22T13:25:01.393Z,2.73
2023-03-22T13:27:38.864Z,2.50
2023-03-22T13:30:15.828Z,2.90
2023-03-22T13:32:55.990Z,3.23
2023-03-22T13:35:28.274Z,2.63
2023-03-22T13:38:03.732Z,3.07
2023-03-22T13:40:37.743Z,3.00
2023-03-22T13:43:29.388Z,2.97
2023-03-22T13:46:13.286Z,2.67
2023-03-22T13:48:52.237Z,2.87
2023-03-22T13:51:29.213Z,2.73
2023-03-22T13:54:03.488Z,2.70
2023-03-22T13:56:52.589Z,2.90
2023-03-22T13:59:24.271Z,2.83
2023-03-22T14:01:54.601Z,2.73
2023-03-22T14:04:30.092Z,3.00
2023-03-22T14:07:01.151Z,3.17
2023-03-22T14:09:33.608Z,3.73
2023-03-22T14:12:08.364Z,3.63
2023-03-22T14:14:43.131Z,3.93
2023-03-22T14:17:23.155Z,3.90
2023-03-22T14:19:56.723Z,3.50
